Time;durP1;ratioP1;P1;durP2;ratioP2;P2;SDS_P1;SDS_P2;PMS_P1;PMS_P2;Temp;Humidity;BMP_temperature;BMP_pressure;BME280_temperature;BME280_humidity;BME280_pressure;Samples;Min_cycle;Max_cycle;Signal;HPM_P1;HPM_P2
2022/10/05 00:02:23;;;;;;;7.50;5.23;;;;;;;;;;5069139;28;20202;-62
2022/10/05 00:04:52;;;;;;;5.67;4.80;;;;;;;;;;5054938;28;21317;-62
2022/10/05 00:07:21;;;;;;;6.83;5.47;;;;;;;;;;5053620;28;20234;-62
2022/10/05 00:09:54;;;;;;;5.43;4.90;;;;;;;;;;5056059;28;20269;-63
2022/10/05 00:12:22;;;;;;;6.33;5.40;;;;;;;;;;5058023;28;20214;-62
2022/10/05 00:14:50;;;;;;;5.80;4.97;;;;;;;;;;5054661;28;20234;-62
2022/10/05 00:17:20;;;;;;;4.60;4.20;;;;;;;;;;5055689;28;20225;-62
2022/10/05 00:19:51;;;;;;;4.63;4.17;;;;;;;;;;5055050;28;20350;-62
2022/10/05 00:22:22;;;;;;;5.37;4.87;;;;;;;;;;5060045;28;20206;-62
2022/10/05 00:24:51;;;;;;;6.50;5.77;;;;;;;;;;5055489;28;20295;-62
2022/10/05 00:27:20;;;;;;;8.83;7.13;;;;;;;;;;5052769;28;20646;-64
2022/10/05 00:29:49;;;;;;;10.10;7.87;;;;;;;;;;5052222;28;20694;-64
2022/10/05 00:32:16;;;;;;;9.67;8.07;;;;;;;;;;5056523;28;20205;-63
2022/10/05 00:34:44;;;;;;;12.23;8.10;;;;;;;;;;5066126;28;20216;-62
2022/10/05 00:37:13;;;;;;;10.67;7.90;;;;;;;;;;5082536;28;20315;-62
2022/10/05 00:39:40;;;;;;;12.20;9.47;;;;;;;;;;5058804;28;20300;-63
2022/10/05 00:42:11;;;;;;;15.87;12.20;;;;;;;;;;5060325;28;20210;-62
2022/10/05 00:44:44;;;;;;;19.77;14.97;;;;;;;;;;5055637;28;20215;-63
2022/10/05 00:47:30;;;;;;;19.93;16.10;;;;;;;;;;5054753;28;20233;-61
2022/10/05 00:50:07;;;;;;;21.20;16.20;;;;;;;;;;5058011;28;20205;-62
2022/10/05 00:52:39;;;;;;;21.53;15.50;;;;;;;;;;5064614;28;20213;-63
2022/10/05 00:55:20;;;;;;;21.70;15.83;;;;;;;;;;5073348;28;20194;-61
2022/10/05 00:58:01;;;;;;;21.03;15.20;;;;;;;;;;5077548;28;20638;-62
2022/10/05 01:00:28;;;;;;;17.00;13.50;;;;;;;;;;5054695;28;20300;-62
2022/10/05 01:03:11;;;;;;;18.40;14.27;;;;;;;;;;5064093;28;20204;-62
2022/10/05 01:05:38;;;;;;;14.47;12.30;;;;;;;;;;5058561;28;20749;-63
2022/10/05 01:08:15;;;;;;;16.37;13.30;;;;;;;;;;5059186;28;21115;-63
2022/10/05 01:10:59;;;;;;;15.83;12.23;;;;;;;;;;5065499;28;20292;-63
2022/10/05 01:13:26;;;;;;;17.23;12.27;;;;;;;;;;5081205;28;20255;-63
2022/10/05 01:15:56;;;;;;;15.03;11.77;;;;;;;;;;5055312;28;21466;-63
2022/10/05 01:18:23;;;;;;;14.30;11.57;;;;;;;;;;5062465;28;20301;-62
2022/10/05 01:21:14;;;;;;;13.30;11.07;;;;;;;;;;5076790;28;20211;-62
2022/10/05 01:24:00;;;;;;;15.17;11.43;;;;;;;;;;5064977;28;20305;-62
2022/10/05 01:26:55;;;;;;;14.20;11.33;;;;;;;;;;5059910;28;20320;-62
2022/10/05 01:29:23;;;;;;;14.37;11.40;;;;;;;;;;5061892;28;20706;-62
2022/10/05 01:31:54;;;;;;;13.83;10.97;;;;;;;;;;5066784;28;20297;-62
2022/10/05 01:34:37;;;;;;;16.77;12.40;;;;;;;;;;5068155;28;20212;-63
2022/10/05 01:37:08;;;;;;;12.97;11.07;;;;;;;;;;5065706;28;20304;-64
2022/10/05 01:39:44;;;;;;;13.27;10.77;;;;;;;;;;5068867;28;20656;-62
2022/10/05 01:42:27;;;;;;;14.77;10.60;;;;;;;;;;5062381;28;20198;-62
2022/10/05 01:45:01;;;;;;;13.60;11.17;;;;;;;;;;5068333;28;20249;-62
2022/10/05 01:47:35;;;;;;;13.63;11.40;;;;;;;;;;5068801;28;20317;-63
2022/10/05 01:50:08;;;;;;;13.27;11.77;;;;;;;;;;5057689;28;20209;-62
2022/10/05 01:52:38;;;;;;;14.50;11.17;;;;;;;;;;5062238;28;20651;-61
2022/10/05 01:55:06;;;;;;;15.03;12.27;;;;;;;;;;5061323;28;20298;-62
2022/10/05 01:57:33;;;;;;;13.47;11.60;;;;;;;;;;5064141;28;20255;-64
2022/10/05 02:00:06;;;;;;;14.13;11.57;;;;;;;;;;5071514;28;20293;-64
2022/10/05 02:02:36;;;;;;;14.67;11.70;;;;;;;;;;5065297;28;20237;-62
2022/10/05 02:05:03;;;;;;;12.67;11.20;;;;;;;;;;5062328;28;20209;-62
2022/10/05 02:07:37;;;;;;;13.53;10.77;;;;;;;;;;5063494;28;20316;-62
2022/10/05 02:10:10;;;;;;;14.03;11.43;;;;;;;;;;5055217;28;20244;-62
2022/10/05 02:12:37;;;;;;;16.73;11.87;;;;;;;;;;5061348;28;20309;-62
2022/10/05 02:15:17;;;;;;;14.30;11.97;;;;;;;;;;5059241;28;20194;-62
2022/10/05 02:17:46;;;;;;;16.10;13.80;;;;;;;;;;5051084;28;20292;-61
2022/10/05 02:20:17;;;;;;;16.83;13.43;;;;;;;;;;5063870;28;20197;-62
2022/10/05 02:22:49;;;;;;;19.70;14.30;;;;;;;;;;5068581;28;20280;-63
2022/10/05 02:25:19;;;;;;;18.80;14.63;;;;;;;;;;5060662;28;20213;-63
2022/10/05 02:27:51;;;;;;;21.90;15.87;;;;;;;;;;5062463;28;20207;-62
2022/10/05 02:30:19;;;;;;;22.37;17.07;;;;;;;;;;5057678;28;20259;-62
2022/10/05 02:32:53;;;;;;;24.77;18.27;;;;;;;;;;5063301;28;20206;-63
2022/10/05 02:35:21;;;;;;;22.43;17.73;;;;;;;;;;5054582;28;20212;-63
2022/10/05 02:37:49;;;;;;;23.57;19.23;;;;;;;;;;5059065;28;20297;-63
2022/10/05 02:40:22;;;;;;;21.73;18.43;;;;;;;;;;5057852;28;20236;-63
2022/10/05 02:42:51;;;;;;;22.77;18.30;;;;;;;;;;5061738;28;20299;-64
2022/10/05 02:45:25;;;;;;;25.73;18.60;;;;;;;;;;5054259;28;20206;-63
2022/10/05 02:48:04;;;;;;;18.93;16.13;;;;;;;;;;5058927;28;20241;-64
2022/10/05 02:50:32;;;;;;;17.90;14.37;;;;;;;;;;5059823;28;20198;-63
2022/10/05 02:52:59;;;;;;;20.83;13.50;;;;;;;;;;5049557;28;22850;-63
2022/10/05 02:55:36;;;;;;;17.57;14.50;;;;;;;;;;5060338;28;20285;-63
2022/10/05 02:58:13;;;;;;;16.80;13.70;;;;;;;;;;5056572;28;20834;-63
2022/10/05 03:01:09;;;;;;;18.10;15.07;;;;;;;;;;5047552;28;20285;-63
2022/10/05 03:03:46;;;;;;;20.83;15.90;;;;;;;;;;5013134;28;20206;-63
2022/10/05 03:06:14;;;;;;;24.80;18.27;;;;;;;;;;5065494;28;20225;-63
2022/10/05 03:08:44;;;;;;;26.33;19.13;;;;;;;;;;5057949;28;20206;-64
2022/10/05 03:11:22;;;;;;;26.00;19.73;;;;;;;;;;5067766;28;20207;-63
2022/10/05 03:13:54;;;;;;;25.13;19.03;;;;;;;;;;5043269;28;20228;-63
2022/10/05 03:16:28;;;;;;;26.57;20.10;;;;;;;;;;5055312;28;20325;-64
2022/10/05 03:19:14;;;;;;;25.23;18.53;;;;;;;;;;5061693;28;20214;-64
2022/10/05 03:21:48;;;;;;;22.27;17.50;;;;;;;;;;5077622;28;20293;-63
2022/10/05 03:24:38;;;;;;;26.73;18.83;;;;;;;;;;5063155;28;20755;-63
2022/10/05 03:27:21;;;;;;;23.20;17.37;;;;;;;;;;5056699;28;20251;-63
2022/10/05 03:29:51;;;;;;;22.97;18.10;;;;;;;;;;5060394;28;20649;-63
2022/10/05 03:32:22;;;;;;;22.57;16.97;;;;;;;;;;5054947;28;20204;-63
2022/10/05 03:34:56;;;;;;;20.70;17.10;;;;;;;;;;5063700;28;20208;-63
2022/10/05 03:37:33;;;;;;;23.77;17.10;;;;;;;;;;5058722;28;20225;-63
2022/10/05 03:40:09;;;;;;;24.37;17.70;;;;;;;;;;5060065;28;20296;-64
2022/10/05 03:42:52;;;;;;;23.87;18.03;;;;;;;;;;5059438;28;20352;-63
2022/10/05 03:45:22;;;;;;;25.13;18.03;;;;;;;;;;5060039;28;20205;-63
2022/10/05 03:48:02;;;;;;;23.23;18.67;;;;;;;;;;5061810;28;20309;-63
2022/10/05 03:50:29;;;;;;;31.47;21.83;;;;;;;;;;5051752;28;20198;-63
2022/10/05 03:52:59;;;;;;;30.63;22.10;;;;;;;;;;5046635;28;20216;-64
2022/10/05 03:55:41;;;;;;;27.07;20.67;;;;;;;;;;5054279;28;20194;-63
2022/10/05 03:58:22;;;;;;;30.33;24.47;;;;;;;;;;5052044;28;20364;-63
2022/10/05 04:00:52;;;;;;;25.40;20.17;;;;;;;;;;5048977;28;20623;-63
2022/10/05 04:03:38;;;;;;;22.63;18.00;;;;;;;;;;5050013;28;20349;-62
2022/10/05 04:06:14;;;;;;;22.70;18.50;;;;;;;;;;5047610;28;20355;-64
2022/10/05 04:08:50;;;;;;;24.53;19.40;;;;;;;;;;5046189;28;20209;-62
2022/10/05 04:11:37;;;;;;;23.77;18.97;;;;;;;;;;5052363;28;20270;-62
2022/10/05 04:14:10;;;;;;;23.50;16.57;;;;;;;;;;5045153;28;20301;-61
2022/10/05 04:16:46;;;;;;;19.60;15.90;;;;;;;;;;5062176;28;20600;-64
2022/10/05 04:19:23;;;;;;;18.83;16.20;;;;;;;;;;5057391;28;20209;-62
2022/10/05 04:22:09;;;;;;;19.23;14.57;;;;;;;;;;5045738;28;20247;-63
2022/10/05 04:24:39;;;;;;;24.47;18.77;;;;;;;;;;5054066;28;20224;-62
2022/10/05 04:27:12;;;;;;;20.17;16.10;;;;;;;;;;5044126;28;20759;-62
2022/10/05 04:29:46;;;;;;;18.03;15.07;;;;;;;;;;5046811;28;20198;-61
2022/10/05 04:32:23;;;;;;;17.37;14.93;;;;;;;;;;5047306;28;20634;-63
2022/10/05 04:35:06;;;;;;;22.67;17.60;;;;;;;;;;5051360;28;20241;-62
2022/10/05 04:37:52;;;;;;;24.37;17.97;;;;;;;;;;5054702;28;20714;-62
2022/10/05 04:40:22;;;;;;;25.40;17.17;;;;;;;;;;5061112;28;20296;-62
2022/10/05 04:43:08;;;;;;;27.20;20.17;;;;;;;;;;5058937;28;20213;-62
2022/10/05 04:45:51;;;;;;;27.90;20.33;;;;;;;;;;5059863;28;20225;-63
2022/10/05 04:48:22;;;;;;;29.53;21.63;;;;;;;;;;5059444;28;20215;-64
2022/10/05 04:50:57;;;;;;;36.23;24.57;;;;;;;;;;5058159;28;20292;-62
2022/10/05 04:53:28;;;;;;;32.03;22.23;;;;;;;;;;5055443;28;20681;-63
2022/10/05 04:56:14;;;;;;;49.00;28.97;;;;;;;;;;5057405;28;20328;-63
2022/10/05 04:58:44;;;;;;;44.30;27.53;;;;;;;;;;5060770;28;20291;-62
2022/10/05 05:01:21;;;;;;;33.93;23.93;;;;;;;;;;5067381;28;20794;-62
2022/10/05 05:04:00;;;;;;;27.53;20.37;;;;;;;;;;5056693;28;20309;-64
2022/10/05 05:06:31;;;;;;;22.90;17.17;;;;;;;;;;5069421;28;20240;-61
2022/10/05 05:09:17;;;;;;;20.80;16.63;;;;;;;;;;5052184;28;20201;-63
2022/10/05 05:12:05;;;;;;;19.43;15.07;;;;;;;;;;5068810;28;20306;-64
2022/10/05 05:14:51;;;;;;;17.73;14.70;;;;;;;;;;5023283;28;20198;-63
2022/10/05 05:17:42;;;;;;;19.50;15.37;;;;;;;;;;5051861;28;20225;-63
2022/10/05 05:20:36;;;;;;;17.80;14.40;;;;;;;;;;5058645;28;20580;-63
2022/10/05 05:23:10;;;;;;;17.87;14.40;;;;;;;;;;5056187;28;20298;-63
2022/10/05 05:25:56;;;;;;;18.37;14.30;;;;;;;;;;5063317;28;20294;-63
2022/10/05 05:28:26;;;;;;;16.33;13.60;;;;;;;;;;5074851;28;20742;-63
2022/10/05 05:31:12;;;;;;;16.33;13.73;;;;;;;;;;5063567;28;20586;-63
2022/10/05 05:33:43;;;;;;;17.73;13.60;;;;;;;;;;5059630;28;20300;-64
2022/10/05 05:36:26;;;;;;;16.10;12.30;;;;;;;;;;5055905;28;20308;-63
2022/10/05 05:38:54;;;;;;;20.30;13.97;;;;;;;;;;5054967;28;20607;-63
2022/10/05 05:41:30;;;;;;;15.07;12.43;;;;;;;;;;5052517;28;20759;-63
2022/10/05 05:44:03;;;;;;;16.57;12.70;;;;;;;;;;5059326;28;20879;-63
2022/10/05 05:46:41;;;;;;;14.57;11.43;;;;;;;;;;5063742;28;20221;-63
2022/10/05 05:49:48;;;;;;;13.07;11.43;;;;;;;;;;5056356;28;20205;-63
2022/10/05 05:52:21;;;;;;;13.33;11.93;;;;;;;;;;5016900;28;20204;-63
2022/10/05 05:54:52;;;;;;;15.20;12.20;;;;;;;;;;5063649;28;20618;-63
2022/10/05 05:57:21;;;;;;;15.90;12.53;;;;;;;;;;5062481;28;20227;-63
2022/10/05 05:59:52;;;;;;;14.03;12.23;;;;;;;;;;5055738;28;20236;-63
2022/10/05 06:02:21;;;;;;;13.03;11.63;;;;;;;;;;5054964;28;20210;-63
2022/10/05 06:04:55;;;;;;;13.93;12.03;;;;;;;;;;5054069;28;20301;-63
2022/10/05 06:07:29;;;;;;;13.13;11.73;;;;;;;;;;5055369;28;20315;-63
2022/10/05 06:10:23;;;;;;;15.43;11.07;;;;;;;;;;5057612;28;20300;-63
2022/10/05 06:12:52;;;;;;;13.97;11.53;;;;;;;;;;5049751;28;20206;-63
2022/10/05 06:15:22;;;;;;;13.57;10.97;;;;;;;;;;5059135;28;20201;-63
2022/10/05 06:17:54;;;;;;;12.27;9.67;;;;;;;;;;5057555;28;20197;-63
2022/10/05 06:20:28;;;;;;;10.87;9.57;;;;;;;;;;5060533;28;20656;-61
2022/10/05 06:22:58;;;;;;;11.30;9.23;;;;;;;;;;5052554;28;20696;-62
2022/10/05 06:25:49;;;;;;;10.50;9.47;;;;;;;;;;5057230;28;20674;-65
2022/10/05 06:28:16;;;;;;;9.97;8.97;;;;;;;;;;5006517;28;20237;-62
2022/10/05 06:31:02;;;;;;;9.30;8.13;;;;;;;;;;5063887;28;20224;-64
2022/10/05 06:33:33;;;;;;;10.37;8.73;;;;;;;;;;5064000;28;20616;-63
2022/10/05 06:36:11;;;;;;;9.17;8.27;;;;;;;;;;5063526;28;20316;-62
2022/10/05 06:39:05;;;;;;;8.80;7.87;;;;;;;;;;5061312;28;20676;-63
2022/10/05 06:41:51;;;;;;;8.33;7.33;;;;;;;;;;5057704;28;20263;-62
2022/10/05 06:44:31;;;;;;;8.43;7.63;;;;;;;;;;5054772;28;20205;-62
2022/10/05 06:47:01;;;;;;;7.80;6.93;;;;;;;;;;5060511;28;20231;-62
2022/10/05 06:49:31;;;;;;;8.10;7.27;;;;;;;;;;5062121;28;20297;-63
2022/10/05 06:52:04;;;;;;;9.03;7.40;;;;;;;;;;5072473;28;20288;-62
2022/10/05 06:54:41;;;;;;;8.63;7.20;;;;;;;;;;5057934;28;20203;-62
2022/10/05 06:57:19;;;;;;;7.90;7.10;;;;;;;;;;5056902;28;20670;-64
2022/10/05 07:00:09;;;;;;;11.23;7.87;;;;;;;;;;5055391;28;20212;-65
2022/10/05 07:02:54;;;;;;;8.03;7.20;;;;;;;;;;5062451;28;20206;-61
2022/10/05 07:05:30;;;;;;;10.53;6.97;;;;;;;;;;5052558;28;20615;-64
2022/10/05 07:07:59;;;;;;;7.83;7.03;;;;;;;;;;5054950;28;20221;-62
2022/10/05 07:10:40;;;;;;;7.13;6.53;;;;;;;;;;5052352;28;20236;-62
2022/10/05 07:13:10;;;;;;;6.53;5.80;;;;;;;;;;5058428;28;20206;-62
2022/10/05 07:15:44;;;;;;;7.47;6.67;;;;;;;;;;5042998;28;20236;-62
2022/10/05 07:18:50;;;;;;;9.37;5.80;;;;;;;;;;5050738;28;20795;-64
2022/10/05 07:21:33;;;;;;;5.70;5.10;;;;;;;;;;4966373;28;20208;-64
2022/10/05 07:24:20;;;;;;;6.83;5.20;;;;;;;;;;4968221;28;20576;-62
2022/10/05 07:26:56;;;;;;;5.43;4.90;;;;;;;;;;5032657;28;20257;-62
2022/10/05 07:29:30;;;;;;;5.50;4.27;;;;;;;;;;5050645;28;20205;-64
2022/10/05 07:32:14;;;;;;;5.40;4.90;;;;;;;;;;5057727;28;20296;-64
2022/10/05 07:34:53;;;;;;;4.37;3.97;;;;;;;;;;5051560;28;20200;-62
2022/10/05 07:37:59;;;;;;;4.33;3.83;;;;;;;;;;5057821;28;20228;-65
2022/10/05 07:40:36;;;;;;;6.93;3.73;;;;;;;;;;5056492;28;20207;-63
2022/10/05 07:43:19;;;;;;;3.93;3.33;;;;;;;;;;5056050;28;20715;-63
2022/10/05 07:45:50;;;;;;;3.70;3.40;;;;;;;;;;5051854;28;20312;-64
2022/10/05 07:48:22;;;;;;;6.90;3.90;;;;;;;;;;5052947;28;20232;-63
2022/10/05 07:50:52;;;;;;;4.20;3.90;;;;;;;;;;5065805;28;20223;-64
2022/10/05 07:53:25;;;;;;;4.37;3.37;;;;;;;;;;5054032;28;20300;-63
2022/10/05 07:55:57;;;;;;;3.80;3.35;;;;;;;;;;5055734;28;20228;-62
2022/10/05 07:58:28;;;;;;;3.27;3.07;;;;;;;;;;5058120;28;20217;-63
2022/10/05 08:00:55;;;;;;;4.07;3.67;;;;;;;;;;5060291;28;20297;-63
2022/10/05 08:03:51;;;;;;;4.63;3.90;;;;;;;;;;5056094;28;20293;-65
2022/10/05 08:06:24;;;;;;;3.70;3.40;;;;;;;;;;5056672;28;20247;-65
2022/10/05 08:08:59;;;;;;;3.43;3.13;;;;;;;;;;5059362;28;20320;-62
2022/10/05 08:11:34;;;;;;;3.47;3.17;;;;;;;;;;5059032;28;20217;-64
2022/10/05 08:14:09;;;;;;;3.00;2.78;;;;;;;;;;5060905;28;20219;-62
2022/10/05 08:16:37;;;;;;;3.30;3.00;;;;;;;;;;5056104;28;20229;-62
2022/10/05 08:19:16;;;;;;;3.95;3.15;;;;;;;;;;5052916;28;20228;-62
2022/10/05 08:21:51;;;;;;;3.38;2.97;;;;;;;;;;5070629;28;20256;-62
2022/10/05 08:24:30;;;;;;;2.92;2.70;;;;;;;;;;5061987;28;22621;-63
2022/10/05 08:27:03;;;;;;;3.20;2.83;;;;;;;;;;5052805;28;20229;-62
2022/10/05 08:29:41;;;;;;;2.90;2.70;;;;;;;;;;5062618;28;20205;-63
2022/10/05 08:32:13;;;;;;;3.20;2.92;;;;;;;;;;5060923;28;20213;-65
2022/10/05 08:34:59;;;;;;;2.95;2.65;;;;;;;;;;5063822;28;20292;-64
2022/10/05 08:37:34;;;;;;;2.97;2.78;;;;;;;;;;5054725;28;20244;-64
2022/10/05 08:40:13;;;;;;;2.95;2.75;;;;;;;;;;5049502;28;20219;-64
2022/10/05 08:42:52;;;;;;;2.83;2.63;;;;;;;;;;5049657;28;20212;-62
2022/10/05 08:45:26;;;;;;;2.60;2.40;;;;;;;;;;5048881;28;20288;-63
2022/10/05 08:48:12;;;;;;;2.90;2.60;;;;;;;;;;5053818;28;20319;-63
2022/10/05 08:50:48;;;;;;;2.92;2.63;;;;;;;;;;5059390;28;20226;-63
2022/10/05 08:53:21;;;;;;;2.47;2.28;;;;;;;;;;5050782;28;20300;-62
2022/10/05 08:56:01;;;;;;;2.50;2.35;;;;;;;;;;5041312;28;20824;-63
2022/10/05 08:58:32;;;;;;;3.05;2.47;;;;;;;;;;5050582;28;20765;-64
2022/10/05 09:01:03;;;;;;;2.88;2.30;;;;;;;;;;5065827;28;20210;-64
2022/10/05 09:03:54;;;;;;;2.80;2.50;;;;;;;;;;5051343;28;20646;-64
2022/10/05 09:06:27;;;;;;;3.03;2.50;;;;;;;;;;5045530;28;20248;-63
2022/10/05 09:09:13;;;;;;;2.47;2.28;;;;;;;;;;5053624;28;20234;-63
2022/10/05 09:11:55;;;;;;;2.58;2.35;;;;;;;;;;5048808;28;20289;-63
2022/10/05 09:14:38;;;;;;;2.30;2.10;;;;;;;;;;5054335;28;20221;-63
2022/10/05 09:17:11;;;;;;;2.20;2.10;;;;;;;;;;5065866;28;20342;-64
2022/10/05 09:19:52;;;;;;;2.28;2.08;;;;;;;;;;5070958;28;20574;-63
2022/10/05 09:22:29;;;;;;;3.42;2.20;;;;;;;;;;5054716;28;20209;-63
2022/10/05 09:25:24;;;;;;;2.15;1.95;;;;;;;;;;5067124;28;20196;-63
2022/10/05 09:27:53;;;;;;;2.80;2.13;;;;;;;;;;5059047;28;20229;-62
2022/10/05 09:30:20;;;;;;;2.20;2.10;;;;;;;;;;5060386;28;20262;-63
2022/10/05 09:33:06;;;;;;;3.20;1.90;;;;;;;;;;5081785;28;20304;-63
2022/10/05 09:35:52;;;;;;;2.38;2.17;;;;;;;;;;5066650;28;20661;-64
2022/10/05 09:38:26;;;;;;;2.00;1.90;;;;;;;;;;5060247;28;20233;-64
2022/10/05 09:40:59;;;;;;;2.55;2.35;;;;;;;;;;5061588;28;20305;-63
2022/10/05 09:43:39;;;;;;;2.08;1.92;;;;;;;;;;5058321;28;20209;-64
2022/10/05 09:46:32;;;;;;;2.10;2.00;;;;;;;;;;5062362;28;20233;-64
2022/10/05 09:49:18;;;;;;;2.55;2.35;;;;;;;;;;5059793;28;20222;-64
2022/10/05 09:52:05;;;;;;;1.90;1.80;;;;;;;;;;5078307;28;20202;-63
2022/10/05 09:54:36;;;;;;;2.58;2.08;;;;;;;;;;5056880;28;20738;-65
2022/10/05 09:57:23;;;;;;;3.58;2.13;;;;;;;;;;5051092;28;20225;-63
2022/10/05 10:00:08;;;;;;;2.00;1.80;;;;;;;;;;5031637;28;20234;-63
2022/10/05 10:02:54;;;;;;;2.17;1.95;;;;;;;;;;5054743;28;20201;-63
2022/10/05 10:05:22;;;;;;;2.22;2.10;;;;;;;;;;5055644;28;20233;-63
2022/10/05 10:08:12;;;;;;;1.95;1.70;;;;;;;;;;5052934;28;20715;-63
2022/10/05 10:10:43;;;;;;;2.30;2.10;;;;;;;;;;5022454;28;20678;-64
2022/10/05 10:13:25;;;;;;;1.70;1.60;;;;;;;;;;5062168;28;20220;-64
2022/10/05 10:16:11;;;;;;;1.88;1.75;;;;;;;;;;5063862;28;20229;-64
2022/10/05 10:18:44;;;;;;;2.22;2.03;;;;;;;;;;5053207;28;20260;-64
2022/10/05 10:21:12;;;;;;;1.83;1.73;;;;;;;;;;5050958;28;20228;-64
2022/10/05 10:23:59;;;;;;;2.00;1.70;;;;;;;;;;5052852;28;20379;-63
2022/10/05 10:26:48;;;;;;;1.50;1.40;;;;;;;;;;5053402;28;22033;-65
2022/10/05 10:29:35;;;;;;;1.70;1.60;;;;;;;;;;5054190;28;20317;-64
2022/10/05 10:32:22;;;;;;;2.22;1.50;;;;;;;;;;5054340;28;20272;-63
2022/10/05 10:35:03;;;;;;;1.73;1.60;;;;;;;;;;5054381;28;20305;-63
2022/10/05 10:37:38;;;;;;;4.72;1.70;;;;;;;;;;5046794;28;20287;-63
2022/10/05 10:40:27;;;;;;;2.35;1.60;;;;;;;;;;5050276;28;20243;-64
2022/10/05 10:43:13;;;;;;;1.55;1.45;;;;;;;;;;5059413;28;20599;-62
2022/10/05 10:45:59;;;;;;;1.70;1.60;;;;;;;;;;5049076;28;20225;-62
2022/10/05 10:48:30;;;;;;;2.20;1.60;;;;;;;;;;5056472;28;20240;-62
2022/10/05 10:51:12;;;;;;;3.10;1.67;;;;;;;;;;5054564;28;20288;-63
2022/10/05 10:53:45;;;;;;;2.78;1.50;;;;;;;;;;5057338;28;20233;-64
2022/10/05 10:56:19;;;;;;;1.60;1.55;;;;;;;;;;5050345;28;20226;-62
2022/10/05 10:58:47;;;;;;;1.42;1.33;;;;;;;;;;5054796;28;20756;-63
2022/10/05 11:01:21;;;;;;;1.70;1.60;;;;;;;;;;5066432;28;20205;-62
2022/10/05 11:03:51;;;;;;;2.38;1.58;;;;;;;;;;5061242;28;20216;-62
2022/10/05 11:06:32;;;;;;;2.88;1.50;;;;;;;;;;5062814;28;20257;-63
2022/10/05 11:09:08;;;;;;;2.65;1.70;;;;;;;;;;5052885;28;20232;-63
2022/10/05 11:11:55;;;;;;;2.00;1.52;;;;;;;;;;5057193;28;20204;-64
2022/10/05 11:14:43;;;;;;;2.60;1.55;;;;;;;;;;5055641;28;20201;-62
2022/10/05 11:17:14;;;;;;;1.52;1.42;;;;;;;;;;5062339;28;20304;-62
2022/10/05 11:19:44;;;;;;;1.52;1.50;;;;;;;;;;5063766;28;20233;-63
2022/10/05 11:22:49;;;;;;;1.88;1.73;;;;;;;;;;5059385;28;20212;-63
2022/10/05 11:25:26;;;;;;;1.63;1.50;;;;;;;;;;5060768;28;20296;-64
2022/10/05 11:27:54;;;;;;;1.52;1.42;;;;;;;;;;5055768;28;20233;-63
2022/10/05 11:30:25;;;;;;;1.35;1.25;;;;;;;;;;5056897;28;20912;-63
2022/10/05 11:33:11;;;;;;;2.53;1.40;;;;;;;;;;5061448;28;20267;-64
2022/10/05 11:35:45;;;;;;;1.40;1.30;;;;;;;;;;5059819;28;21740;-64
2022/10/05 11:38:31;;;;;;;2.05;1.40;;;;;;;;;;5071171;28;20197;-64
2022/10/05 11:41:21;;;;;;;1.60;1.45;;;;;;;;;;5071599;28;21193;-62
2022/10/05 11:43:57;;;;;;;4.43;2.10;;;;;;;;;;5062314;28;20715;-62
2022/10/05 11:46:35;;;;;;;4.97;3.85;;;;;;;;;;5061788;28;20227;-63
2022/10/05 11:49:15;;;;;;;2.20;2.00;;;;;;;;;;5056534;28;20525;-63
2022/10/05 11:51:45;;;;;;;3.83;1.92;;;;;;;;;;5057872;28;20726;-65
2022/10/05 11:54:19;;;;;;;2.08;1.88;;;;;;;;;;5060431;28;20198;-64
2022/10/05 11:56:46;;;;;;;1.52;1.42;;;;;;;;;;5051419;28;20232;-64
2022/10/05 11:59:33;;;;;;;2.40;1.70;;;;;;;;;;5055675;28;20570;-64
2022/10/05 12:02:06;;;;;;;1.65;1.55;;;;;;;;;;5048141;28;20958;-64
2022/10/05 12:04:54;;;;;;;1.52;1.42;;;;;;;;;;5049834;28;20304;-64
2022/10/05 12:07:24;;;;;;;1.70;1.60;;;;;;;;;;5053652;28;20221;-64
2022/10/05 12:12:56;;;;;;;4.68;1.75;;;;;;;;;;5053675;28;20227;-64
2022/10/05 12:15:39;;;;;;;3.08;1.60;;;;;;;;;;5068780;28;20201;-64
2022/10/05 12:18:26;;;;;;;2.90;1.70;;;;;;;;;;5051512;28;20243;-63
2022/10/05 12:21:16;;;;;;;1.80;1.70;;;;;;;;;;5060996;28;20348;-63
2022/10/05 12:24:03;;;;;;;2.08;1.50;;;;;;;;;;5049461;28;20198;-64
2022/10/05 12:26:34;;;;;;;1.92;1.50;;;;;;;;;;5059355;28;20312;-65
2022/10/05 12:29:07;;;;;;;1.50;1.40;;;;;;;;;;5053512;28;20228;-64
2022/10/05 12:31:38;;;;;;;2.67;1.40;;;;;;;;;;5045588;28;20303;-64
2022/10/05 12:34:24;;;;;;;1.30;1.30;;;;;;;;;;5057236;28;20290;-63
2022/10/05 12:36:56;;;;;;;1.23;1.23;;;;;;;;;;5048926;28;20225;-64
2022/10/05 12:39:37;;;;;;;1.60;1.50;;;;;;;;;;5054934;28;20206;-62
2022/10/05 12:42:25;;;;;;;1.95;1.40;;;;;;;;;;5058250;28;20272;-65
2022/10/05 12:45:22;;;;;;;3.42;1.35;;;;;;;;;;5040085;28;20209;-65
2022/10/05 12:47:50;;;;;;;1.38;1.30;;;;;;;;;;4972074;28;20234;-63
2022/10/05 12:50:22;;;;;;;2.67;1.52;;;;;;;;;;5056266;28;20206;-63
2022/10/05 12:52:58;;;;;;;2.53;1.40;;;;;;;;;;5051054;28;20759;-63
2022/10/05 12:55:30;;;;;;;1.50;1.40;;;;;;;;;;5048400;28;20234;-64
2022/10/05 12:58:16;;;;;;;1.50;1.40;;;;;;;;;;5053338;28;20284;-63
2022/10/05 13:01:02;;;;;;;1.35;1.35;;;;;;;;;;5067729;28;20197;-62
2022/10/05 13:03:34;;;;;;;1.60;1.50;;;;;;;;;;5051312;28;20669;-61
2022/10/05 13:06:33;;;;;;;1.92;1.70;;;;;;;;;;5058754;28;20254;-62
2022/10/05 13:09:08;;;;;;;1.80;1.52;;;;;;;;;;5039943;28;20766;-65
2022/10/05 13:11:41;;;;;;;1.70;1.60;;;;;;;;;;5059773;28;20197;-63
2022/10/05 13:14:18;;;;;;;2.15;1.58;;;;;;;;;;5058140;28;20312;-62
2022/10/05 13:17:05;;;;;;;2.10;1.35;;;;;;;;;;5060436;28;20217;-62
2022/10/05 13:19:33;;;;;;;3.30;1.90;;;;;;;;;;5056564;28;20316;-63
2022/10/05 13:22:19;;;;;;;1.52;1.42;;;;;;;;;;5072842;28;20209;-64
2022/10/05 13:25:05;;;;;;;1.45;1.40;;;;;;;;;;5052380;28;20279;-62
2022/10/05 13:27:44;;;;;;;1.40;1.40;;;;;;;;;;5055690;28;20256;-63
2022/10/05 13:30:15;;;;;;;1.98;1.40;;;;;;;;;;5059522;28;20327;-62
2022/10/05 13:32:42;;;;;;;1.60;1.40;;;;;;;;;;5062110;28;20201;-64
2022/10/05 13:35:22;;;;;;;1.45;1.35;;;;;;;;;;5054545;28;20281;-63
2022/10/05 13:37:49;;;;;;;2.30;1.52;;;;;;;;;;5057734;28;20194;-63
2022/10/05 13:40:16;;;;;;;3.75;1.80;;;;;;;;;;5050586;28;20219;-63
2022/10/05 13:43:07;;;;;;;2.28;1.60;;;;;;;;;;5040162;28;20305;-63
2022/10/05 13:45:54;;;;;;;2.15;1.52;;;;;;;;;;5026459;28;20232;-64
2022/10/05 13:48:42;;;;;;;2.50;1.65;;;;;;;;;;5045358;28;20267;-64
2022/10/05 13:51:18;;;;;;;2.17;1.77;;;;;;;;;;5045146;28;20205;-61
2022/10/05 13:53:54;;;;;;;1.95;1.73;;;;;;;;;;5045801;28;20212;-64
2022/10/05 13:56:39;;;;;;;3.35;1.95;;;;;;;;;;5050561;28;20598;-64
2022/10/05 13:59:18;;;;;;;2.25;1.55;;;;;;;;;;5051121;28;20210;-63
2022/10/05 14:01:49;;;;;;;2.30;1.70;;;;;;;;;;5054971;28;20729;-64
2022/10/05 14:04:43;;;;;;;1.92;1.70;;;;;;;;;;5045130;28;20737;-64
2022/10/05 14:07:32;;;;;;;3.63;1.90;;;;;;;;;;5058463;28;20266;-64
2022/10/05 14:10:01;;;;;;;1.52;1.42;;;;;;;;;;5057245;28;20231;-64
2022/10/05 14:12:36;;;;;;;2.03;1.77;;;;;;;;;;5076595;28;20318;-64
2022/10/05 14:15:18;;;;;;;2.55;1.70;;;;;;;;;;5056232;28;20197;-64
2022/10/05 14:17:45;;;;;;;3.83;1.60;;;;;;;;;;5065583;28;20201;-64
2022/10/05 14:20:22;;;;;;;3.60;1.60;;;;;;;;;;5057146;28;20207;-64
2022/10/05 14:22:56;;;;;;;3.25;1.50;;;;;;;;;;5060251;28;20221;-63
2022/10/05 14:25:23;;;;;;;2.03;1.50;;;;;;;;;;5057195;28;20221;-64
2022/10/05 14:27:50;;;;;;;2.15;1.60;;;;;;;;;;5049292;28;20233;-63
2022/10/05 14:30:22;;;;;;;3.55;1.63;;;;;;;;;;5047397;28;20229;-63
2022/10/05 14:33:16;;;;;;;2.17;1.75;;;;;;;;;;5049292;28;20614;-64
2022/10/05 14:35:43;;;;;;;1.75;1.65;;;;;;;;;;5046144;28;20634;-64
2022/10/05 14:38:25;;;;;;;1.73;1.63;;;;;;;;;;5046051;28;20220;-64
2022/10/05 14:41:02;;;;;;;1.77;1.65;;;;;;;;;;5047589;28;20244;-63
2022/10/05 14:43:30;;;;;;;2.15;1.75;;;;;;;;;;5050935;28;20202;-63
2022/10/05 14:46:03;;;;;;;2.67;1.75;;;;;;;;;;5056198;28;20241;-63
2022/10/05 14:48:41;;;;;;;2.53;1.67;;;;;;;;;;5044837;28;20253;-64
2022/10/05 14:51:23;;;;;;;2.15;1.50;;;;;;;;;;5045678;28;20237;-66
2022/10/05 14:54:02;;;;;;;2.03;1.80;;;;;;;;;;5065086;28;20838;-62
2022/10/05 14:56:33;;;;;;;1.88;1.70;;;;;;;;;;5049371;28;20255;-64
2022/10/05 14:59:06;;;;;;;3.95;1.55;;;;;;;;;;5053453;28;20256;-65
2022/10/05 15:01:35;;;;;;;2.17;1.63;;;;;;;;;;5058942;28;20304;-63
2022/10/05 15:04:22;;;;;;;2.47;1.50;;;;;;;;;;5055425;28;20210;-63
2022/10/05 15:06:55;;;;;;;1.77;1.67;;;;;;;;;;5054743;28;20238;-61
2022/10/05 15:09:45;;;;;;;1.30;1.20;;;;;;;;;;5054804;28;20719;-62
2022/10/05 15:12:14;;;;;;;3.38;1.70;;;;;;;;;;5042130;28;20800;-63
2022/10/05 15:14:43;;;;;;;1.85;1.75;;;;;;;;;;5050283;28;20213;-62
2022/10/05 15:17:30;;;;;;;1.95;1.77;;;;;;;;;;5041113;28;20790;-63
2022/10/05 15:19:58;;;;;;;2.75;1.50;;;;;;;;;;5041560;28;20205;-63
2022/10/05 15:22:40;;;;;;;2.22;2.03;;;;;;;;;;5037538;28;21452;-65
2022/10/05 15:25:15;;;;;;;1.90;1.75;;;;;;;;;;5046677;28;20782;-62
2022/10/05 15:27:46;;;;;;;2.10;2.00;;;;;;;;;;5044982;28;20212;-63
2022/10/05 15:30:18;;;;;;;2.40;2.00;;;;;;;;;;5053426;28;20232;-63
2022/10/05 15:33:08;;;;;;;4.05;2.28;;;;;;;;;;5053700;28;20281;-62
2022/10/05 15:35:39;;;;;;;5.63;2.10;;;;;;;;;;5012431;28;20322;-62